Latest Weather Observations for McArthur River Mine

IDD60801

Issued at 6:31 am CST Thursday 5 May 2016 (issued every 30 minutes, with the page automatically refreshed every 10 minutes)

About weather observations | Map of weather stations | Latest weather observations for NT | Other Formats
Station Details ID: 014704 Name: MCARTHUR RIVER MINE AIRPORT Lat: -16.44 Lon: 136.08 Height: 40.0 m
Data from the previous 72 hours. | See also: Recent months at McArthur River Mine
Date/Time
CST
Temp
°C
App
Temp
°C
Dew
Point
Rel
Hum
%
Delta-T
°C
Wind Press
QNH
hPa
Press
MSL
hPa
Rain
since 9 am
mm
Dir
 
Spd
km/h
Gust
km/h
Spd
kts
Gust
kts
05/06:30am 23.8 27.9 20.7 83 2.0 CALM 0 0 0 0 1013.1 1012.9 0.0
05/06:00am 24.0 28.0 20.5 81 2.3 CALM 0 0 0 0 1013.0 1012.8 0.0
05/05:30am 24.1 28.0 20.4 80 2.4 CALM 0 0 0 0 1012.9 1012.7 0.0
05/05:00am 24.2 28.3 20.7 81 2.3 CALM 0 0 0 0 1012.6 1012.4 0.0
05/04:30am 24.7 28.7 20.6 78 2.7 CALM 0 0 0 0 1012.2 1012.0 0.0
05/04:00am 24.7 28.6 20.4 77 2.8 CALM 0 0 0 0 1012.2 1012.0 0.0
05/03:30am 24.7 28.5 20.2 76 2.9 CALM 0 0 0 0 1012.3 1012.1 0.0
05/03:00am 25.1 29.1 20.6 76 2.9 CALM 0 0 0 0 1012.5 1012.3 0.0
05/02:30am 25.4 29.3 20.4 74 3.3 CALM 0 0 0 0 1012.8 1012.6 0.0
05/02:00am 25.6 29.4 20.2 72 3.5 CALM 0 0 0 0 1012.8 1012.6 0.0
05/01:30am 26.2 30.1 20.3 70 3.9 CALM 0 0 0 0 1012.8 1012.6 0.0
05/01:00am 26.7 30.5 20.1 67 4.3 CALM 0 0 0 0 1012.9 1012.7 0.0
05/12:30am 27.3 31.2 20.4 66 4.5 CALM 0 0 0 0 1013.0 1012.8 0.0
05/12:00am 27.5 31.3 20.1 64 4.8 CALM 0 0 0 0 1013.4 1013.2 0.0
 
Date/Time
CST
Temp
°C
App
Temp
°C
Dew
Point
Rel
Hum
%
Delta-T
°C
Wind Press
QNH
hPa
Press
MSL
hPa
Rain
since 9 am
mm
Dir
 
Spd
km/h
Gust
km/h
Spd
kts
Gust
kts
04/11:30pm 27.6 30.4 20.4 65 4.7 WSW 6 7 3 4 1013.5 1013.3 0.0
04/11:00pm 27.9 32.0 20.7 65 4.8 CALM 0 0 0 0 1013.4 1013.2 0.0
04/10:30pm 28.2 31.1 20.7 63 5.0 N 6 9 3 5 1013.3 1013.1 0.0
04/10:00pm 28.5 30.7 20.5 62 5.3 NNE 9 13 5 7 1013.1 1012.9 0.0
04/09:30pm 28.9 30.8 19.8 58 6.0 NE 9 13 5 7 1013.2 1013.0 0.0
04/09:00pm 29.4 31.3 19.7 56 6.4 NE 9 15 5 8 1013.1 1012.9 0.0
04/08:30pm 29.9 31.2 19.3 53 6.9 NNE 11 17 6 9 1012.6 1012.4 0.0
04/08:00pm 30.5 31.9 19.5 51 7.2 NNE 11 19 6 10 1012.3 1012.1 0.0
04/07:30pm 31.1 32.3 19.8 51 7.4 NNE 13 20 7 11 1011.7 1011.5 0.0
04/07:00pm 31.9 33.3 19.5 47 8.2 NNE 11 20 6 11 1011.2 1011.0 0.0
04/06:30pm 33.2 34.3 17.0 38 10.3 NE 7 11 4 6 1010.9 1010.7 0.0
04/06:00pm 34.0 34.4 16.4 35 11.2 NE 9 17 5 9 1010.5 1010.3 0.0
04/05:30pm 34.7 34.3 16.1 33 11.8 NE 13 19 7 10 1010.3 1010.1 0.0
04/05:00pm 34.8 34.7 16.1 32 11.8 NE 11 20 6 11 1010.1 1009.9 0.0
04/04:30pm 35.2 34.2 15.5 30 12.4 NE 15 26 8 14 1009.8 1009.6 0.0
04/04:00pm 36.0 35.6 16.2 31 12.6 ENE 13 19 7 10 1009.8 1009.6 0.0
04/03:30pm 35.6 34.7 15.9 31 12.5 ENE 15 24 8 13 1009.8 1009.6 0.0
04/03:00pm 35.9 35.5 16.1 30 12.6 NE 13 24 7 13 1010.1 1009.9 0.0
04/02:30pm 35.5 34.8 16.3 32 12.2 E 15 22 8 12 1010.5 1010.3 0.0
04/02:00pm 35.3 34.7 16.6 33 11.9 E 15 22 8 12 1010.9 1010.7 0.0
04/01:30pm 35.1 34.0 16.4 32 11.9 E 17 28 9 15 1011.5 1011.3 0.0
04/01:00pm 35.2 34.2 16.5 33 11.9 ESE 17 24 9 13 1012.0 1011.8 0.0
04/12:30pm 34.3 33.7 16.6 34 11.3 ESE 15 26 8 14 1012.5 1012.3 0.0
04/12:00pm 33.7 33.8 17.4 37 10.5 E 13 22 7 12 1013.0 1012.8 0.0
04/11:30am 33.3 32.7 17.5 39 10.1 E 17 24 9 13 1013.7 1013.5 0.0
04/11:00am 33.1 33.3 17.7 40 9.9 ESE 13 24 7 13 1013.9 1013.7 0.0
04/10:30am 32.1 31.7 17.2 41 9.5 SE 15 22 8 12 1014.2 1014.0 0.0
04/10:00am 31.4 30.7 17.3 43 9.0 SE 17 24 9 13 1014.5 1014.3 0.0
04/09:30am 30.9 30.7 17.6 45 8.5 ESE 15 20 8 11 1014.6 1014.4 0.0
04/09:00am 29.9 30.2 18.0 48 7.6 SE 13 19 7 10 1014.2 1014.0 0.0
04/08:34am 29.2 30.3 18.9 53 6.7 SE 11 17 6 9 1014.2 1014.0 0.0
04/08:30am 28.8 30.7 19.7 58 5.9 SSE 9 13 5 7 1014.2 1014.0 0.0
04/08:15am 27.2 29.8 20.5 67 4.4 WSW 7 11 4 6 1014.3 1014.1 0.0
04/08:00am 26.2 29.2 20.8 72 3.6 WSW 6 7 3 4 1013.9 1013.7 0.0
04/07:30am 25.1 27.9 20.8 77 2.8 WNW 7 9 4 5 1013.6 1013.4 0.0
04/07:00am 24.1 27.8 20.8 82 2.2 NW 2 6 1 3 1013.4 1013.2 0.0
04/06:30am 24.2 28.2 20.5 80 2.4 CALM 0 0 0 0 1012.9 1012.7 0.0
04/06:29am 24.2 28.2 20.5 80 2.4 CALM 0 0 0 0 1012.9 1012.7 0.0
04/06:19am 24.4 28.0 20.5 79 2.5 SSW 2 6 1 3 1012.7 1012.5 0.0
04/06:00am 24.9 27.9 20.8 78 2.7 SSW 6 7 3 4 1012.6 1012.4 0.0
04/05:30am 24.7 28.7 20.6 78 2.7 CALM 0 0 0 0 1012.4 1012.2 0.0
04/05:00am 24.9 28.2 20.8 78 2.7 S 4 7 2 4 1012.2 1012.0 0.0
04/04:30am 24.5 27.7 20.6 79 2.6 WSW 4 7 2 4 1012.1 1011.9 0.0
04/04:00am 24.6 27.4 20.5 78 2.7 W 6 7 3 4 1012.0 1011.8 0.0
04/03:30am 25.2 29.3 20.7 76 3.0 CALM 0 0 0 0 1012.2 1012.0 0.0
04/03:00am 25.5 29.1 20.5 74 3.3 S 2 7 1 4 1012.4 1012.2 0.0
04/02:30am 25.5 28.4 20.7 75 3.2 SSE 6 7 3 4 1012.4 1012.2 0.0
04/02:00am 25.3 28.4 21.0 77 2.8 NW 6 7 3 4 1012.8 1012.6 0.0
04/01:30am 25.6 28.9 20.8 75 3.2 SSW 4 7 2 4 1013.0 1012.8 0.0
04/01:00am 25.6 29.5 21.1 76 3.0 ENE 2 7 1 4 1013.3 1013.1 0.0
04/12:30am 25.3 29.6 21.2 78 2.7 CALM 0 0 0 0 1013.7 1013.5 0.0
04/12:00am 25.0 27.7 21.3 80 2.4 N 9 13 5 7 1014.1 1013.9 0.0
 
Date/Time
CST
Temp
°C
App
Temp
°C
Dew
Point
Rel
Hum
%
Delta-T
°C
Wind Press
QNH
hPa
Press
MSL
hPa
Rain
since 9 am
mm
Dir
 
Spd
km/h
Gust
km/h
Spd
kts
Gust
kts
03/11:30pm 24.6 25.3 20.5 78 2.7 NNE 17 26 9 14 1014.6 1014.4 0.0
03/11:00pm 25.4 26.4 21.7 80 2.5 ENE 19 30 10 16 1014.8 1014.6 0.0
03/10:30pm 28.1 28.7 21.4 67 4.5 ENE 20 30 11 16 1014.4 1014.2 0.0
03/10:00pm 28.7 32.9 21.7 66 4.7 NW 2 9 1 5 1014.3 1014.1 0.0
03/09:30pm 28.8 33.3 21.6 65 4.8 CALM 0 0 0 0 1014.2 1014.0 0.0
03/09:00pm 29.0 32.7 21.5 64 5.0 NNW 4 7 2 4 1014.1 1013.9 0.0
03/08:30pm 29.4 32.4 21.9 64 5.1 SSW 9 13 5 7 1013.7 1013.5 0.0
03/08:00pm 28.5 32.0 21.8 67 4.5 W 6 9 3 5 1013.2 1013.0 0.0
03/07:30pm 28.5 32.1 22.0 68 4.4 NW 6 9 3 5 1012.4 1012.2 0.0
03/07:00pm 29.0 32.4 21.7 64 4.9 NW 6 7 3 4 1011.7 1011.5 0.0
03/06:30pm 29.4 32.1 21.4 62 5.4 NNE 9 15 5 8 1011.1 1010.9 0.0
03/06:00pm 30.1 31.2 21.2 59 6.0 NNE 17 26 9 14 1010.8 1010.6 0.0
03/05:30pm 30.6 30.4 20.5 54 6.7 NNE 22 37 12 20 1010.7 1010.5 0.0
03/05:00pm 35.4 35.7 17.1 33 11.8 SSE 11 19 6 10 1009.7 1009.5 0.0
03/04:30pm 35.5 35.9 17.2 33 11.8 SSE 11 15 6 8 1009.5 1009.3 0.0
03/04:00pm 35.7 37.3 17.9 35 11.6 E 6 13 3 7 1009.4 1009.2 0.0
03/03:30pm 35.8 37.8 18.8 36 11.2 S 6 15 3 8 1009.7 1009.5 0.0
03/03:00pm 34.8 35.3 18.4 38 10.7 S 13 17 7 9 1009.9 1009.7 0.0
03/02:30pm 34.7 35.6 18.3 38 10.7 S 11 15 6 8 1010.3 1010.1 0.0
03/02:00pm 35.8 37.1 18.4 35 11.4 SSW 9 15 5 8 1010.7 1010.5 0.0
03/01:30pm 35.9 37.6 18.5 36 11.4 ENE 7 17 4 9 1011.2 1011.0 0.0
03/01:00pm 35.4 36.5 18.9 37 10.9 S 11 19 6 10 1011.7 1011.5 0.0
03/12:30pm 34.5 35.6 19.7 41 9.8 S 13 22 7 12 1012.2 1012.0 0.0
03/12:00pm 34.7 35.7 20.3 43 9.6 S 15 24 8 13 1012.7 1012.5 0.0
03/11:30am 33.5 35.4 20.6 46 8.6 SSE 11 20 6 11 1013.2 1013.0 0.0
03/11:00am 32.8 35.2 21.6 51 7.6 SE 11 20 6 11 1013.7 1013.5 0.0
03/10:30am 31.7 33.5 21.2 53 7.1 SSE 13 22 7 12 1014.1 1013.9 0.0
03/10:00am 31.3 33.1 21.2 55 6.8 SSE 13 24 7 13 1014.5 1014.3 0.0
03/09:30am 30.1 32.2 21.7 60 5.7 S 13 20 7 11 1014.6 1014.4 0.0
03/09:00am 29.3 30.8 21.3 62 5.4 SSE 15 20 8 11 1014.5 1014.3 0.2
03/08:30am 28.5 30.2 21.0 64 5.0 SSW 13 19 7 10 1014.3 1014.1 0.2
03/08:00am 27.7 29.8 21.0 67 4.4 SW 11 15 6 8 1014.2 1014.0 0.2
03/07:30am 25.9 30.5 22.4 81 2.4 W 2 7 1 4 1013.8 1013.6 0.2
03/07:00am 25.5 29.7 21.8 80 2.5 SW 2 6 1 3 1013.4 1013.2 0.2
03/06:30am 26.7 29.8 21.0 71 3.8 S 6 9 3 5 1013.2 1013.0 0.2
03/06:00am 26.3 30.2 23.0 82 2.2 SSW 7 11 4 6 1013.1 1012.9 0.2
03/05:47am 25.8 30.0 23.1 85 1.8 SW 6 7 3 4 1013.1 1012.9 0.2
03/05:30am 26.0 30.2 23.1 84 2.0 SW 6 11 3 6 1012.8 1012.6 0.2
03/05:27am 25.9 30.0 23.0 84 2.0 SW 6 7 3 4 1012.8 1012.6 0.2
03/05:00am 26.7 30.9 23.4 82 2.3 SSW 7 7 4 4 1012.7 1012.5 0.2
03/04:30am 26.8 31.0 23.5 82 2.3 S 7 11 4 6 1012.7 1012.5 0.2
03/04:00am 26.5 30.4 23.6 84 2.0 S 9 13 5 7 1012.7 1012.5 0.2
03/03:30am 26.1 31.2 23.4 85 1.8 SSW 2 6 1 3 1012.4 1012.2 0.2
03/03:00am 26.2 31.5 23.1 83 2.1 CALM 0 0 0 0 1012.0 1011.8 0.2
03/02:30am 26.7 31.4 23.4 82 2.3 SE 4 7 2 4 1012.1 1011.9 0.2
03/02:00am 26.9 32.4 24.0 84 2.0 NNE 2 7 1 4 1012.1 1011.9 0.2
03/01:30am 26.9 32.3 23.2 80 2.5 CALM 0 0 0 0 1012.1 1011.9 0.2
03/01:00am 27.2 32.7 23.4 80 2.6 CALM 0 0 0 0 1012.5 1012.3 0.2
03/12:30am 27.5 31.9 23.5 79 2.7 NNW 6 7 3 4 1012.8 1012.6 0.2
03/12:00am 27.8 33.2 23.2 76 3.1 CALM 0 0 0 0 1013.1 1012.9 0.2
 
Date/Time
CST
Temp
°C
App
Temp
°C
Dew
Point
Rel
Hum
%
Delta-T
°C
Wind Press
QNH
hPa
Press
MSL
hPa
Rain
since 9 am
mm
Dir
 
Spd
km/h
Gust
km/h
Spd
kts
Gust
kts
02/11:30pm 28.5 33.8 23.0 72 3.8 CALM 0 2 0 1 1013.2 1013.0 0.2
02/11:00pm 28.9 32.8 22.9 70 4.1 NNE 7 11 4 6 1013.3 1013.1 0.2
02/10:30pm 29.2 33.1 22.9 69 4.3 NNE 7 11 4 6 1013.2 1013.0 0.2
02/10:00pm 29.5 33.3 23.4 69 4.2 NNE 9 13 5 7 1013.2 1013.0 0.2
02/09:30pm 29.9 33.9 23.8 70 4.2 NNE 9 13 5 7 1013.3 1013.1 0.2
02/09:00pm 30.2 33.7 23.6 67 4.6 NNE 11 20 6 11 1013.3 1013.1 0.2
02/08:30pm 30.8 33.5 23.5 65 5.0 NNE 15 24 8 13 1013.2 1013.0 0.2
02/08:00pm 31.4 34.2 23.0 61 5.8 NNE 13 24 7 13 1012.6 1012.4 0.2
02/07:30pm 32.1 34.5 22.2 56 6.8 NNE 13 20 7 11 1012.2 1012.0 0.2
02/07:00pm 32.7 34.4 20.9 49 7.9 NE 13 20 7 11 1011.4 1011.2 0.2
02/06:30pm 33.4 34.5 20.5 46 8.6 NNE 15 20 8 11 1011.1 1010.9 0.2
02/06:00pm 34.0 34.9 20.0 43 9.3 NNE 15 20 8 11 1010.6 1010.4 0.2
02/05:30pm 34.7 35.9 19.9 42 9.9 N 13 22 7 12 1010.3 1010.1 0.2
02/05:00pm 35.6 36.6 19.5 38 10.7 NE 13 20 7 11 1009.9 1009.7 0.2
02/04:30pm 35.7 37.1 19.6 39 10.7 NE 11 20 6 11 1009.8 1009.6 0.2
02/04:00pm 35.6 37.4 19.5 38 10.7 NE 9 15 5 8 1009.7 1009.5 0.2
02/03:30pm 36.2 37.3 19.6 37 11.1 NE 13 22 7 12 1009.7 1009.5 0.2
02/03:00pm 35.7 36.2 19.2 38 10.9 NNE 15 26 8 14 1009.9 1009.7 0.2
02/02:30pm 35.8 36.5 18.8 36 11.2 NE 13 20 7 11 1010.4 1010.2 0.2
02/02:00pm 35.7 36.9 20.0 39 10.5 ENE 13 26 7 14 1010.8 1010.6 0.2
02/01:30pm 35.0 35.7 20.5 42 9.8 NE 17 30 9 16 1011.3 1011.1 0.2
02/01:00pm 35.2 37.2 20.7 42 9.8 NE 11 20 6 11 1011.5 1011.3 0.2
02/12:30pm 34.7 36.6 21.4 46 9.0 NNE 13 20 7 11 1011.9 1011.7 0.2
02/12:00pm 35.4 37.3 21.3 44 9.6 NNE 13 22 7 12 1012.4 1012.2 0.2
02/11:30am 33.9 34.7 21.3 47 8.5 NNE 19 24 10 13 1012.8 1012.6 0.2
02/11:00am 33.6 35.4 21.1 48 8.4 NE 13 24 7 13 1012.9 1012.7 0.2
02/10:30am 33.1 35.8 22.2 52 7.5 NE 11 17 6 9 1013.3 1013.1 0.2
02/10:00am 32.7 36.2 22.2 54 7.2 ENE 7 11 4 6 1013.5 1013.3 0.2
02/09:30am 31.5 35.0 21.9 56 6.5 ENE 6 11 3 6 1013.2 1013.0 0.2
02/09:00am 30.1 34.9 23.5 67 4.6 ESE 4 7 2 4 1013.2 1013.0 0.2
02/08:30am 28.2 32.7 23.6 76 3.2 S 6 9 3 5 1013.2 1013.0 0.2
02/08:10am 27.4 32.0 23.8 81 2.5 SSW 6 7 3 4 1013.2 1013.0 0.2
02/08:00am 26.5 31.5 23.8 85 1.9 SW 4 6 2 3 1013.1 1012.9 0.2
02/07:50am 26.0 31.3 23.7 87 1.6 WNW 2 6 1 3 1013.0 1012.8 0.2
02/07:30am 25.1 31.0 24.1 94 0.7 CALM 0 0 0 0 1012.7 1012.5 0.2
02/07:05am 24.6 30.2 23.6 94 0.7 CALM 0 0 0 0 1012.6 1012.4 0.2
02/07:00am 24.6 30.2 23.6 94 0.7 CALM 0 0 0 0 1012.6 1012.4 0.2
02/06:36am 24.5 30.1 23.5 94 0.7 CALM 0 0 0 0 1012.5 1012.3 0.2

Other Formats:

Comma delimited format used in spreadsheet applications
http://www.bom.gov.au/fwo/IDD60801/IDD60801.94239.axf

JavaScript Object Notation format (JSON) in row-major order
http://www.bom.gov.au/fwo/IDD60801/IDD60801.94239.json